createdAt,value
2023-01-11T00:00:17.627Z,15.02
2023-01-11T00:02:47.041Z,15.05
2023-01-11T00:05:16.348Z,14.25
2023-01-11T00:07:45.128Z,15.73
2023-01-11T00:10:13.795Z,14.10
2023-01-11T00:12:42.390Z,14.18
2023-01-11T00:15:13.282Z,14.43
2023-01-11T00:17:42.547Z,14.07
2023-01-11T00:20:11.972Z,14.93
2023-01-11T00:22:40.829Z,14.27
2023-01-11T00:25:13.647Z,15.27
2023-01-11T00:27:42.358Z,15.55
2023-01-11T00:30:13.526Z,15.50
2023-01-11T00:32:42.194Z,14.80
2023-01-11T00:35:14.362Z,14.02
2023-01-11T00:37:43.131Z,14.60
2023-01-11T00:40:12.462Z,15.02
2023-01-11T00:42:58.815Z,14.75
2023-01-11T00:45:46.694Z,14.27
2023-01-11T00:48:16.471Z,13.95
2023-01-11T00:50:45.368Z,13.85
2023-01-11T00:53:14.584Z,13.95
2023-01-11T00:55:43.520Z,13.85
2023-01-11T00:58:12.591Z,14.95
2023-01-11T01:00:43.551Z,13.95
2023-01-11T01:03:12.550Z,13.02
2023-01-11T01:05:40.986Z,14.85
2023-01-11T01:08:12.028Z,13.65
2023-01-11T01:10:40.553Z,13.07
2023-01-11T01:13:29.599Z,12.85
2023-01-11T01:16:00.158Z,13.25
2023-01-11T01:18:28.788Z,12.90
2023-01-11T01:20:57.190Z,13.98
2023-01-11T01:23:25.741Z,13.32
2023-01-11T01:25:54.246Z,13.32
2023-01-11T01:28:23.251Z,13.75
2023-01-11T01:30:52.928Z,13.77
2023-01-11T01:33:23.030Z,13.93
2023-01-11T01:35:52.258Z,14.00
2023-01-11T01:38:20.712Z,13.13
2023-01-11T01:40:52.640Z,14.38
2023-01-11T01:43:21.450Z,13.52
2023-01-11T01:45:53.006Z,13.23
2023-01-11T01:48:28.097Z,12.95
2023-01-11T01:51:01.150Z,12.48
2023-01-11T01:53:35.866Z,12.00
2023-01-11T01:56:09.848Z,13.27
2023-01-11T01:58:46.760Z,13.25
2023-01-11T02:01:36.694Z,11.98
2023-01-11T02:04:14.370Z,12.63
2023-01-11T02:06:43.578Z,11.75
2023-01-11T02:09:23.531Z,10.82
2023-01-11T02:11:54.602Z,11.15
2023-01-11T02:14:29.345Z,10.77
2023-01-11T02:16:58.128Z,11.25
2023-01-11T02:19:43.461Z,9.52
2023-01-11T02:22:46.701Z,10.25
2023-01-11T02:25:34.694Z,8.32
2023-01-11T02:28:10.411Z,8.23
2023-01-11T02:30:48.386Z,8.32
2023-01-11T02:33:24.592Z,8.38
2023-01-11T02:36:06.054Z,8.93
2023-01-11T02:38:41.788Z,8.48
2023-01-11T02:41:20.567Z,8.70
2023-01-11T02:44:17.773Z,8.50
2023-01-11T02:46:50.892Z,8.15
2023-01-11T02:49:29.512Z,8.93
2023-01-11T02:52:05.800Z,8.73
2023-01-11T02:54:35.503Z,8.65
2023-01-11T02:57:05.562Z,8.20
2023-01-11T02:59:37.679Z,8.93
2023-01-11T03:02:07.133Z,8.35
2023-01-11T03:04:36.958Z,8.40
2023-01-11T03:07:20.954Z,8.93
2023-01-11T03:10:02.513Z,7.75
2023-01-11T03:12:52.304Z,8.60
2023-01-11T03:15:35.692Z,8.57
2023-01-11T03:18:16.491Z,8.85
2023-01-11T03:20:51.765Z,8.95
2023-01-11T03:23:26.013Z,8.68
2023-01-11T03:26:01.600Z,8.48
2023-01-11T03:28:39.298Z,8.38
2023-01-11T03:31:18.369Z,8.43
2023-01-11T03:33:55.802Z,8.00
2023-01-11T03:36:28.879Z,8.25
2023-01-11T03:39:02.277Z,8.10
2023-01-11T03:41:35.836Z,7.57
2023-01-11T03:44:10.206Z,8.07
2023-01-11T03:46:45.883Z,8.57
2023-01-11T03:49:17.682Z,7.78
2023-01-11T03:51:49.470Z,7.82
2023-01-11T03:54:25.785Z,7.53
2023-01-11T03:57:01.613Z,7.88
2023-01-11T03:59:30.225Z,8.23
2023-01-11T04:02:01.202Z,8.05
2023-01-11T04:04:30.699Z,7.55
2023-01-11T04:06:59.610Z,9.23
2023-01-11T04:09:29.383Z,8.50
2023-01-11T04:11:58.495Z,7.20
2023-01-11T04:14:27.346Z,8.05
2023-01-11T04:16:56.064Z,8.90
2023-01-11T04:19:26.311Z,7.65
2023-01-11T04:21:54.779Z,9.13
2023-01-11T04:24:23.312Z,8.10
2023-01-11T04:26:52.410Z,8.18
2023-01-11T04:29:20.969Z,8.10
2023-01-11T04:31:49.585Z,7.53
2023-01-11T04:34:18.283Z,8.70
2023-01-11T04:36:48.121Z,8.02
2023-01-11T04:39:17.807Z,7.82
2023-01-11T04:42:04.452Z,8.18
2023-01-11T04:44:33.431Z,8.25
2023-01-11T04:47:02.057Z,7.82
2023-01-11T04:49:31.168Z,7.60
2023-01-11T04:52:01.113Z,7.65
2023-01-11T04:54:29.680Z,7.88
2023-01-11T04:56:59.385Z,7.00
2023-01-11T04:59:28.111Z,7.43
2023-01-11T05:01:57.192Z,7.55
2023-01-11T05:04:26.295Z,7.78
2023-01-11T05:06:55.117Z,7.65
2023-01-11T05:09:25.675Z,7.13
2023-01-11T05:11:54.697Z,8.23
2023-01-11T05:14:23.836Z,7.68
2023-01-11T05:16:52.467Z,8.45
2023-01-11T05:19:21.761Z,7.93
2023-01-11T05:21:50.489Z,7.20
2023-01-11T05:24:19.764Z,7.40
2023-01-11T05:26:50.662Z,7.63
2023-01-11T05:29:20.590Z,7.38
2023-01-11T05:31:50.170Z,7.35
2023-01-11T05:34:19.262Z,7.35
2023-01-11T05:36:47.943Z,7.85
2023-01-11T05:39:16.782Z,9.05
2023-01-11T05:41:46.125Z,8.02
2023-01-11T05:44:33.649Z,8.73
2023-01-11T05:47:02.593Z,8.80
2023-01-11T05:49:31.553Z,9.23
2023-01-11T05:52:00.178Z,8.45
2023-01-11T05:54:29.010Z,9.00
2023-01-11T05:56:58.653Z,8.88
2023-01-11T05:59:31.953Z,9.23
2023-01-11T06:02:01.276Z,9.95
2023-01-11T06:04:30.690Z,9.35
2023-01-11T06:06:59.808Z,8.43
2023-01-11T06:09:28.560Z,8.73
2023-01-11T06:11:57.459Z,7.90
2023-01-11T06:14:26.746Z,7.93
2023-01-11T06:16:57.053Z,9.02
2023-01-11T06:19:30.174Z,9.23
2023-01-11T06:21:59.805Z,8.77
2023-01-11T06:24:32.763Z,9.63
2023-01-11T06:27:01.378Z,10.35
2023-01-11T06:29:30.244Z,9.80
2023-01-11T06:32:03.243Z,10.85
2023-01-11T06:34:31.907Z,9.93
2023-01-11T06:37:00.510Z,9.00
2023-01-11T06:39:29.258Z,8.60
2023-01-11T06:41:57.924Z,8.80
2023-01-11T06:44:26.825Z,8.05
2023-01-11T06:47:00.386Z,9.57
2023-01-11T06:49:29.060Z,8.20
2023-01-11T06:51:57.592Z,8.52
2023-01-11T06:54:26.741Z,8.25
2023-01-11T06:56:55.957Z,8.40
2023-01-11T06:59:24.950Z,8.05
2023-01-11T07:01:54.042Z,8.45
2023-01-11T07:04:24.969Z,8.63
2023-01-11T07:06:55.924Z,9.10
2023-01-11T07:09:25.054Z,9.27
2023-01-11T07:11:54.490Z,9.68
2023-01-11T07:14:25.240Z,9.98
2023-01-11T07:16:54.782Z,10.23
2023-01-11T07:19:24.890Z,10.10
2023-01-11T07:21:53.962Z,10.05
2023-01-11T07:24:24.558Z,9.07
2023-01-11T07:26:55.114Z,9.73
2023-01-11T07:29:23.686Z,9.70
2023-01-11T07:31:52.657Z,11.00
2023-01-11T07:34:21.666Z,9.98
2023-01-11T07:36:52.339Z,9.05
2023-01-11T07:39:26.824Z,10.30
2023-01-11T07:42:17.814Z,9.77
2023-01-11T07:44:46.591Z,8.05
2023-01-11T07:47:15.607Z,7.50
2023-01-11T07:49:44.516Z,8.02
2023-01-11T07:52:14.652Z,7.07
2023-01-11T07:54:43.562Z,7.40
2023-01-11T07:57:12.037Z,7.55
2023-01-11T07:59:41.030Z,6.40
2023-01-11T08:02:12.271Z,5.88
2023-01-11T08:04:41.690Z,5.72
2023-01-11T08:07:10.719Z,6.53
2023-01-11T08:09:41.257Z,5.80
2023-01-11T08:12:27.624Z,6.13
2023-01-11T08:14:56.391Z,5.80
2023-01-11T08:17:25.167Z,6.13
2023-01-11T08:19:56.009Z,6.05
2023-01-11T08:22:25.197Z,5.50
2023-01-11T08:24:55.590Z,6.68
2023-01-11T08:27:25.654Z,6.28
2023-01-11T08:29:54.635Z,6.85
2023-01-11T08:32:23.489Z,6.43
2023-01-11T08:34:52.304Z,7.03
2023-01-11T08:37:21.182Z,6.80
2023-01-11T08:39:49.965Z,6.78
2023-01-11T08:42:20.275Z,6.80
2023-01-11T08:44:49.169Z,7.80
2023-01-11T08:47:18.035Z,8.77
2023-01-11T08:49:46.707Z,8.82
2023-01-11T08:52:15.607Z,8.35
2023-01-11T08:54:44.506Z,7.75
2023-01-11T08:57:15.812Z,7.90
2023-01-11T08:59:46.390Z,7.65
2023-01-11T09:02:15.469Z,7.33
2023-01-11T09:04:46.680Z,8.35
2023-01-11T09:07:15.622Z,8.77
2023-01-11T09:09:44.318Z,8.68
2023-01-11T09:12:14.342Z,7.93
2023-01-11T09:14:43.882Z,8.10
2023-01-11T09:17:14.188Z,8.23
2023-01-11T09:19:43.007Z,7.88
2023-01-11T09:22:11.940Z,7.70
2023-01-11T09:24:40.757Z,7.82
2023-01-11T09:27:12.047Z,14.63
2023-01-11T09:29:41.368Z,14.38
2023-01-11T09:32:14.492Z,14.13
2023-01-11T09:34:45.340Z,9.32
2023-01-11T09:37:15.787Z,8.98
2023-01-11T09:39:45.676Z,10.15
2023-01-11T09:42:35.668Z,11.20
2023-01-11T09:45:14.636Z,11.32
2023-01-11T09:47:50.276Z,17.52
2023-01-11T09:50:23.921Z,10.82
2023-01-11T09:52:54.803Z,19.10
2023-01-11T09:55:33.896Z,11.02
2023-01-11T09:58:22.162Z,8.48
2023-01-11T10:00:56.108Z,13.95
2023-01-11T10:04:26.103Z,19.90
2023-01-11T10:07:13.574Z,8.60
2023-01-11T10:18:31.356Z,10.85
2023-01-11T10:21:58.334Z,7.68
2023-01-11T10:24:30.336Z,7.82
2023-01-11T10:27:02.288Z,8.43
2023-01-11T10:32:45.931Z,11.43
2023-01-11T10:35:41.484Z,8.38
2023-01-11T10:38:41.323Z,8.02
2023-01-11T10:41:22.348Z,7.75
2023-01-11T10:44:02.859Z,7.72
2023-01-11T10:46:33.537Z,9.05
2023-01-11T10:49:14.626Z,8.27
2023-01-11T10:51:49.316Z,8.48
2023-01-11T10:54:22.257Z,9.27
2023-01-11T10:57:09.141Z,8.48
2023-01-11T10:59:55.549Z,9.32
2023-01-11T11:02:40.295Z,8.20
2023-01-11T11:05:24.922Z,7.88
2023-01-11T11:07:59.985Z,9.35
2023-01-11T11:10:37.745Z,8.65
2023-01-11T11:13:15.146Z,7.97
2023-01-11T11:15:54.117Z,8.02
2023-01-11T11:18:23.939Z,8.40
2023-01-11T11:20:52.947Z,7.30
2023-01-11T11:23:26.284Z,6.68
2023-01-11T11:25:59.175Z,8.40
2023-01-11T11:28:30.680Z,8.10
2023-01-11T11:31:01.775Z,7.70
2023-01-11T11:33:35.412Z,7.50
2023-01-11T11:36:08.146Z,8.50
2023-01-11T11:38:40.650Z,7.80
2023-01-11T11:41:12.521Z,8.00
2023-01-11T11:46:25.221Z,8.20
2023-01-11T11:49:21.209Z,11.18
2023-01-11T11:51:50.613Z,9.65
2023-01-11T11:54:30.937Z,8.55
2023-01-11T11:57:13.345Z,7.20
2023-01-11T11:59:47.413Z,8.00
2023-01-11T12:02:29.842Z,6.75
2023-01-11T12:05:00.437Z,6.57
2023-01-11T12:07:36.099Z,7.22
2023-01-11T12:10:14.674Z,7.07
2023-01-11T12:12:55.641Z,8.15
2023-01-11T12:15:30.367Z,9.00
2023-01-11T12:18:24.553Z,10.40
2023-01-11T12:20:53.607Z,8.90
2023-01-11T12:23:24.494Z,8.65
2023-01-11T12:26:18.240Z,7.88
2023-01-11T12:29:04.124Z,7.63
2023-01-11T12:31:43.843Z,7.65
2023-01-11T12:34:35.466Z,7.80
2023-01-11T12:37:14.490Z,9.15
2023-01-11T12:39:53.122Z,6.88
2023-01-11T12:42:40.239Z,8.82
2023-01-11T12:45:21.683Z,7.43
2023-01-11T12:48:25.489Z,8.13
2023-01-11T12:51:08.845Z,14.73
2023-01-11T12:53:54.053Z,14.27
2023-01-11T12:56:48.405Z,9.50
2023-01-11T12:59:41.264Z,12.27
2023-01-11T13:02:30.652Z,9.50
2023-01-11T13:05:10.210Z,12.07
2023-01-11T13:07:49.908Z,10.48
2023-01-11T13:10:30.444Z,8.65
2023-01-11T13:13:07.322Z,10.02
2023-01-11T13:15:49.113Z,9.43
2023-01-11T13:21:01.707Z,8.30
2023-01-11T13:23:39.305Z,9.10
2023-01-11T13:26:25.085Z,9.90
2023-01-11T13:29:01.820Z,11.85
2023-01-11T13:31:38.938Z,15.55
2023-01-11T13:34:18.599Z,13.27
2023-01-11T13:36:53.150Z,15.65
2023-01-11T13:39:28.781Z,24.42
2023-01-11T13:42:03.566Z,30.70
2023-01-11T13:44:37.255Z,28.58
2023-01-11T13:47:12.388Z,30.70
2023-01-11T13:49:50.768Z,29.45
2023-01-11T13:52:22.131Z,38.40
2023-01-11T13:54:59.800Z,25.25
2023-01-11T13:57:35.883Z,22.55
2023-01-11T14:00:12.651Z,29.98
2023-01-11T14:02:48.593Z,35.53
2023-01-11T14:05:21.564Z,35.15
2023-01-11T14:08:02.387Z,23.42
2023-01-11T14:10:40.967Z,19.80
2023-01-11T14:13:54.024Z,15.07
2023-01-11T14:16:33.042Z,9.57
2023-01-11T14:19:16.344Z,8.70
2023-01-11T14:22:07.499Z,10.02
2023-01-11T14:24:42.416Z,11.57
2023-01-11T14:27:33.357Z,10.68
2023-01-11T14:30:23.234Z,9.00
2023-01-11T14:33:24.724Z,8.80
2023-01-11T14:36:11.084Z,9.45
2023-01-11T14:39:06.791Z,8.27
2023-01-11T14:42:12.147Z,7.75
2023-01-11T14:45:23.418Z,9.10
2023-01-11T14:48:06.476Z,8.05
2023-01-11T14:50:46.795Z,7.68
2023-01-11T14:55:52.860Z,8.20
2023-01-11T14:58:27.255Z,8.20
2023-01-11T15:01:12.027Z,9.05
2023-01-11T15:03:52.019Z,8.45
2023-01-11T15:06:22.966Z,9.07
2023-01-11T15:08:56.126Z,10.10
2023-01-11T15:11:32.245Z,9.48
2023-01-11T15:14:04.937Z,9.98
2023-01-11T15:16:53.110Z,9.35
2023-01-11T15:19:28.867Z,10.10
2023-01-11T15:21:59.987Z,9.57
2023-01-11T15:24:34.298Z,9.60
2023-01-11T15:27:04.055Z,11.60
2023-01-11T15:29:34.343Z,13.02
2023-01-11T15:32:15.597Z,12.18
2023-01-11T15:34:46.376Z,12.38
2023-01-11T15:37:29.827Z,10.77
2023-01-11T15:40:05.311Z,11.52
2023-01-11T15:42:58.301Z,11.73
2023-01-11T15:46:32.657Z,10.70
2023-01-11T15:49:50.997Z,10.75
2023-01-11T15:53:04.513Z,10.43
2023-01-11T15:56:16.767Z,10.88
2023-01-11T15:59:30.817Z,10.00
2023-01-11T16:02:35.994Z,10.75
2023-01-11T16:05:17.274Z,9.38
2023-01-11T16:07:58.054Z,10.15
2023-01-11T16:10:48.605Z,10.38
2023-01-11T16:13:35.338Z,11.27
2023-01-11T16:16:18.067Z,10.43
2023-01-11T16:18:52.330Z,12.30
2023-01-11T16:21:33.867Z,16.33
2023-01-11T16:24:05.855Z,25.85
2023-01-11T16:29:12.646Z,21.98
2023-01-11T16:32:01.870Z,22.75
2023-01-11T16:34:32.336Z,17.85
2023-01-11T16:37:02.395Z,23.00
2023-01-11T16:39:34.758Z,17.25
2023-01-11T16:42:06.350Z,18.02
2023-01-11T16:44:49.078Z,14.18
2023-01-11T16:47:18.707Z,13.10
2023-01-11T16:49:50.290Z,13.98
2023-01-11T16:52:40.703Z,12.60
2023-01-11T16:55:29.797Z,10.50
2023-01-11T16:58:01.506Z,13.98
2023-01-11T17:00:38.918Z,12.00
2023-01-11T17:03:25.912Z,11.10
2023-01-11T17:06:04.457Z,14.52
2023-01-11T17:08:35.931Z,11.73
2023-01-11T17:11:17.962Z,12.05
2023-01-11T17:16:31.611Z,12.10
2023-01-11T17:19:08.203Z,11.95
2023-01-11T17:21:41.651Z,15.35
2023-01-11T17:24:26.465Z,17.58
2023-01-11T17:27:03.475Z,14.55
2023-01-11T17:29:39.620Z,11.85
2023-01-11T17:32:18.599Z,20.73
2023-01-11T17:34:50.489Z,16.33
2023-01-11T17:37:20.823Z,19.27
2023-01-11T17:39:53.939Z,16.70
2023-01-11T17:42:40.915Z,30.65
2023-01-11T17:45:26.164Z,19.80
2023-01-11T17:47:57.811Z,15.32
2023-01-11T17:50:30.293Z,22.70
2023-01-11T17:53:08.438Z,20.10
2023-01-11T17:55:53.882Z,14.50
2023-01-11T17:58:27.719Z,14.80
2023-01-11T18:01:28.887Z,13.70
2023-01-11T18:04:01.490Z,14.15
2023-01-11T18:06:36.290Z,15.05
2023-01-11T18:09:11.964Z,16.58
2023-01-11T18:11:46.896Z,14.90
2023-01-11T18:14:24.631Z,13.70
2023-01-11T18:17:02.145Z,14.18
2023-01-11T18:19:44.540Z,14.15
2023-01-11T18:22:33.027Z,21.85
2023-01-11T18:25:22.681Z,19.08
2023-01-11T18:28:26.012Z,17.70
2023-01-11T18:31:02.803Z,16.90
2023-01-11T18:33:35.472Z,19.33
2023-01-11T18:36:28.597Z,22.85
2023-01-11T18:38:57.421Z,23.95
2023-01-11T18:41:47.062Z,25.33
2023-01-11T18:44:23.920Z,24.92
2023-01-11T18:46:53.140Z,21.90
2023-01-11T18:49:21.587Z,22.13
2023-01-11T18:51:52.029Z,20.40
2023-01-11T18:54:22.444Z,32.95
2023-01-11T18:56:51.272Z,18.25
2023-01-11T18:59:20.054Z,18.35
2023-01-11T19:02:01.693Z,19.10
2023-01-11T19:04:41.657Z,21.17
2023-01-11T19:07:16.512Z,20.48
2023-01-11T19:09:46.379Z,18.00
2023-01-11T19:12:16.786Z,23.63
2023-01-11T19:14:47.912Z,25.83
2023-01-11T19:17:20.505Z,26.60
2023-01-11T19:19:49.459Z,25.33
2023-01-11T19:22:23.338Z,18.73
2023-01-11T19:24:58.168Z,22.23
2023-01-11T19:27:28.373Z,20.70
2023-01-11T19:30:04.179Z,19.55
2023-01-11T19:32:33.518Z,20.48
2023-01-11T19:35:05.471Z,18.52
2023-01-11T19:37:39.964Z,16.00
2023-01-11T19:40:10.987Z,16.80
2023-01-11T19:42:42.889Z,15.65
2023-01-11T19:45:12.164Z,15.27
2023-01-11T19:47:50.434Z,14.45
2023-01-11T19:50:23.145Z,15.05
2023-01-11T19:52:56.247Z,16.95
2023-01-11T19:55:38.417Z,18.67
2023-01-11T19:58:08.521Z,17.38
2023-01-11T20:00:37.783Z,14.60
2023-01-11T20:03:07.449Z,13.10
2023-01-11T20:05:38.510Z,13.88
2023-01-11T20:08:13.507Z,14.40
2023-01-11T20:10:43.039Z,15.95
2023-01-11T20:13:14.441Z,17.17
2023-01-11T20:15:43.586Z,17.85
2023-01-11T20:18:15.162Z,14.30
2023-01-11T20:20:48.278Z,15.68
2023-01-11T20:23:21.842Z,13.10
2023-01-11T20:25:53.110Z,13.73
2023-01-11T20:28:32.290Z,12.77
2023-01-11T20:31:02.544Z,15.00
2023-01-11T20:33:34.535Z,13.55
2023-01-11T20:36:10.882Z,12.07
2023-01-11T20:38:43.236Z,12.77
2023-01-11T20:41:43.869Z,11.68
2023-01-11T20:44:19.867Z,12.57
2023-01-11T20:46:51.916Z,12.80
2023-01-11T20:51:50.072Z,11.95
2023-01-11T20:54:22.504Z,10.90
2023-01-11T20:56:53.029Z,12.23
2023-01-11T20:59:25.829Z,11.35
2023-01-11T21:01:57.748Z,11.80
2023-01-11T21:04:27.974Z,12.32
2023-01-11T21:06:58.168Z,12.02
2023-01-11T21:09:29.515Z,11.80
2023-01-11T21:11:58.850Z,12.25
2023-01-11T21:14:27.908Z,11.10
2023-01-11T21:16:57.059Z,10.00
2023-01-11T21:19:26.894Z,10.70
2023-01-11T21:21:58.783Z,11.55
2023-01-11T21:24:29.803Z,11.65
2023-01-11T21:26:58.922Z,12.37
2023-01-11T21:29:27.706Z,11.32
2023-01-11T21:31:56.782Z,13.18
2023-01-11T21:34:28.034Z,13.90
2023-01-11T21:36:57.133Z,12.05
2023-01-11T21:39:27.015Z,10.43
2023-01-11T21:42:00.339Z,9.77
2023-01-11T21:44:33.744Z,9.98
2023-01-11T21:47:03.807Z,9.60
2023-01-11T21:49:33.469Z,9.50
2023-01-11T21:52:10.157Z,10.27
2023-01-11T21:54:42.135Z,11.30
2023-01-11T21:57:12.962Z,10.32
2023-01-11T21:59:41.760Z,10.32
2023-01-11T22:02:11.349Z,12.75
2023-01-11T22:04:40.564Z,12.82
2023-01-11T22:07:09.783Z,12.98
2023-01-11T22:09:44.795Z,13.48
2023-01-11T22:12:26.846Z,12.45
2023-01-11T22:14:56.443Z,10.68
2023-01-11T22:17:28.004Z,10.82
2023-01-11T22:19:57.050Z,10.13
2023-01-11T22:22:26.001Z,10.70
2023-01-11T22:24:55.383Z,10.85
2023-01-11T22:27:26.436Z,10.20
2023-01-11T22:29:58.278Z,10.38
2023-01-11T22:35:03.782Z,9.82
2023-01-11T22:37:32.962Z,8.82
2023-01-11T22:40:07.718Z,15.20
2023-01-11T22:42:40.967Z,11.07
2023-01-11T22:45:21.626Z,10.50
2023-01-11T22:47:56.719Z,9.85
2023-01-11T22:50:32.682Z,9.13
2023-01-11T22:53:03.398Z,12.02
2023-01-11T22:55:36.816Z,10.77
2023-01-11T22:58:11.495Z,11.00
2023-01-11T23:00:43.456Z,10.45
2023-01-11T23:03:16.698Z,9.07
2023-01-11T23:06:01.005Z,8.77
2023-01-11T23:08:30.165Z,10.13
2023-01-11T23:11:01.910Z,9.40
2023-01-11T23:13:49.789Z,8.63
2023-01-11T23:16:20.843Z,8.27
2023-01-11T23:18:50.056Z,10.15
2023-01-11T23:21:22.010Z,8.73
2023-01-11T23:23:54.155Z,8.15
2023-01-11T23:26:23.975Z,8.65
2023-01-11T23:28:57.371Z,8.77
2023-01-11T23:31:30.768Z,8.35
2023-01-11T23:34:18.668Z,9.38
2023-01-11T23:36:52.733Z,8.95
2023-01-11T23:39:30.865Z,9.23
2023-01-11T23:42:20.575Z,10.15
2023-01-11T23:44:51.276Z,8.55
2023-01-11T23:47:23.951Z,9.30
2023-01-11T23:49:57.796Z,9.88
2023-01-11T23:52:30.617Z,9.05
2023-01-11T23:55:02.567Z,8.55
2023-01-11T23:57:31.603Z,8.63
